createdAt,value
2023-02-12T00:00:10.772Z,22.07
2023-02-12T00:02:43.683Z,20.77
2023-02-12T00:05:11.052Z,21.07
2023-02-12T00:07:38.250Z,20.83
2023-02-12T00:10:05.630Z,22.00
2023-02-12T00:12:32.811Z,21.73
2023-02-12T00:15:00.114Z,22.03
2023-02-12T00:17:27.325Z,21.80
2023-02-12T00:19:54.514Z,22.07
2023-02-12T00:22:23.908Z,22.03
2023-02-12T00:24:51.187Z,23.17
2023-02-12T00:27:18.410Z,22.67
2023-02-12T00:29:45.700Z,22.80
2023-02-12T00:32:14.270Z,23.53
2023-02-12T00:34:41.752Z,24.00
2023-02-12T00:37:09.024Z,21.73
2023-02-12T00:39:38.003Z,23.77
2023-02-12T00:42:05.355Z,23.90
2023-02-12T00:47:17.345Z,24.20
2023-02-12T00:49:44.573Z,23.87
2023-02-12T00:52:30.595Z,24.23
2023-02-12T00:54:57.947Z,23.80
2023-02-12T00:57:25.234Z,23.87
2023-02-12T00:59:52.549Z,23.33
2023-02-12T01:02:19.863Z,23.23
2023-02-12T01:04:47.428Z,22.23
2023-02-12T01:07:14.760Z,23.20
2023-02-12T01:09:42.261Z,24.20
2023-02-12T01:12:09.554Z,22.87
2023-02-12T01:14:36.794Z,23.37
2023-02-12T01:17:04.306Z,22.60
2023-02-12T01:19:31.503Z,22.20
2023-02-12T01:22:17.578Z,22.53
2023-02-12T01:24:44.819Z,22.83
2023-02-12T01:27:12.101Z,22.03
2023-02-12T01:29:39.815Z,22.27
2023-02-12T01:32:08.089Z,22.93
2023-02-12T01:34:35.390Z,22.43
2023-02-12T01:37:02.563Z,22.43
2023-02-12T01:39:29.817Z,21.63
2023-02-12T01:41:57.087Z,23.20
2023-02-12T01:44:25.905Z,22.30
2023-02-12T01:47:00.146Z,21.73
2023-02-12T01:49:32.536Z,21.37
2023-02-12T01:52:01.994Z,21.90
2023-02-12T01:54:29.721Z,24.57
2023-02-12T01:56:57.246Z,22.23
2023-02-12T01:59:25.946Z,22.53
2023-02-12T02:01:55.190Z,22.13
2023-02-12T02:04:24.654Z,20.57
2023-02-12T02:06:57.924Z,22.33
2023-02-12T02:09:25.869Z,21.87
2023-02-12T02:12:14.344Z,21.63
2023-02-12T02:14:42.383Z,22.07
2023-02-12T02:17:28.856Z,21.70
2023-02-12T02:20:15.129Z,21.77
2023-02-12T02:22:45.372Z,23.07
2023-02-12T02:25:28.068Z,21.03
2023-02-12T02:28:14.002Z,21.23
2023-02-12T02:30:45.582Z,22.80
2023-02-12T02:33:16.052Z,22.00
2023-02-12T02:35:43.337Z,22.47
2023-02-12T02:38:13.714Z,22.77
2023-02-12T02:40:45.949Z,22.93
2023-02-12T02:43:18.425Z,22.63
2023-02-12T02:45:53.637Z,22.90
2023-02-12T02:48:30.227Z,23.63
2023-02-12T02:51:00.442Z,22.53
2023-02-12T02:53:30.730Z,24.00
2023-02-12T02:55:59.868Z,23.37
2023-02-12T02:58:38.812Z,23.80
2023-02-12T03:01:18.078Z,22.77
2023-02-12T03:03:49.705Z,23.40
2023-02-12T03:06:28.016Z,23.00
2023-02-12T03:08:58.002Z,22.43
2023-02-12T03:11:27.561Z,22.23
2023-02-12T03:14:03.906Z,21.73
2023-02-12T03:16:43.837Z,21.77
2023-02-12T03:19:22.275Z,23.90
2023-02-12T03:21:52.503Z,22.53
2023-02-12T03:24:22.683Z,22.53
2023-02-12T03:26:56.885Z,22.47
2023-02-12T03:29:24.145Z,22.67
2023-02-12T03:32:06.395Z,22.57
2023-02-12T03:34:53.900Z,22.20
2023-02-12T03:37:30.031Z,22.03
2023-02-12T03:40:06.392Z,22.77
2023-02-12T03:42:53.885Z,23.43
2023-02-12T03:45:44.613Z,22.63
2023-02-12T03:48:21.110Z,22.53
2023-02-12T03:50:54.576Z,21.63
2023-02-12T03:53:21.919Z,22.60
2023-02-12T03:55:54.069Z,22.87
2023-02-12T03:58:24.749Z,22.77
2023-02-12T04:00:52.123Z,23.50
2023-02-12T04:03:19.465Z,22.63
2023-02-12T04:05:46.664Z,24.37
2023-02-12T04:08:14.174Z,22.07
2023-02-12T04:10:44.237Z,23.97
2023-02-12T04:13:22.780Z,23.50
2023-02-12T04:15:59.601Z,24.43
2023-02-12T04:18:41.873Z,24.67
2023-02-12T04:21:09.112Z,24.93
2023-02-12T04:23:59.777Z,24.33
2023-02-12T04:26:43.464Z,26.27
2023-02-12T04:29:18.026Z,25.20
2023-02-12T04:31:59.588Z,24.17
2023-02-12T04:34:29.944Z,24.87
2023-02-12T04:37:03.328Z,25.93
2023-02-12T04:39:32.222Z,25.27
2023-02-12T04:42:00.580Z,25.50
2023-02-12T04:44:29.028Z,24.90
2023-02-12T04:46:56.321Z,24.97
2023-02-12T04:49:24.245Z,25.73
2023-02-12T04:51:52.041Z,23.70
2023-02-12T04:54:20.159Z,24.83
2023-02-12T04:56:47.883Z,25.27
2023-02-12T04:59:15.725Z,25.57
2023-02-12T05:01:44.129Z,25.53
2023-02-12T05:04:12.859Z,25.17
2023-02-12T05:06:40.711Z,25.70
2023-02-12T05:09:08.434Z,25.27
2023-02-12T05:11:35.572Z,24.83
2023-02-12T05:14:02.925Z,26.37
2023-02-12T05:16:30.110Z,26.20
2023-02-12T05:19:16.140Z,27.13
2023-02-12T05:21:43.376Z,25.70
2023-02-12T05:24:10.684Z,26.20
2023-02-12T05:26:38.185Z,26.67
2023-02-12T05:29:05.673Z,25.93
2023-02-12T05:31:32.929Z,24.97
2023-02-12T05:34:00.266Z,25.87
2023-02-12T05:36:27.960Z,25.50
2023-02-12T05:38:58.319Z,25.63
2023-02-12T05:41:25.873Z,27.43
2023-02-12T05:43:53.734Z,26.33
2023-02-12T05:46:21.970Z,27.20
2023-02-12T05:48:49.634Z,24.80
2023-02-12T05:51:19.900Z,26.43
2023-02-12T05:53:47.174Z,26.13
2023-02-12T05:56:15.926Z,26.30
2023-02-12T05:58:45.209Z,25.67
2023-02-12T06:01:13.501Z,24.67
2023-02-12T06:03:40.829Z,23.73
2023-02-12T06:06:08.166Z,25.30
2023-02-12T06:08:35.608Z,25.33
2023-02-12T06:11:03.908Z,24.90
2023-02-12T06:13:31.744Z,24.97
2023-02-12T06:15:59.673Z,24.50
2023-02-12T06:18:27.429Z,24.33
2023-02-12T06:20:54.888Z,24.93
2023-02-12T06:23:22.835Z,24.37
2023-02-12T06:25:50.868Z,24.97
2023-02-12T06:28:18.429Z,23.73
2023-02-12T06:30:45.686Z,22.80
2023-02-12T06:33:12.959Z,22.10
2023-02-12T06:35:40.528Z,21.97
2023-02-12T06:38:08.484Z,23.50
2023-02-12T06:40:35.728Z,21.90
2023-02-12T06:43:02.889Z,22.17
2023-02-12T06:45:30.172Z,22.57
2023-02-12T06:47:57.337Z,21.17
2023-02-12T06:50:25.585Z,21.10
2023-02-12T06:52:53.014Z,20.73
2023-02-12T06:55:20.292Z,20.70
2023-02-12T06:57:47.742Z,20.73
2023-02-12T07:00:15.065Z,18.13
2023-02-12T07:02:42.346Z,18.67
2023-02-12T07:05:10.757Z,20.03
2023-02-12T07:07:38.003Z,20.80
2023-02-12T07:10:05.421Z,26.37
2023-02-12T07:12:33.970Z,38.97
2023-02-12T07:15:01.124Z,20.73
2023-02-12T07:17:30.914Z,19.07
2023-02-12T07:19:58.116Z,18.33
2023-02-12T07:22:25.334Z,17.97
2023-02-12T07:24:52.587Z,18.63
2023-02-12T07:27:19.784Z,18.57
2023-02-12T07:29:46.960Z,17.23
2023-02-12T07:32:14.378Z,18.00
2023-02-12T07:34:41.658Z,17.90
2023-02-12T07:37:09.075Z,17.53
2023-02-12T07:39:36.268Z,15.50
2023-02-12T07:42:03.579Z,18.30
2023-02-12T07:44:31.375Z,17.53
2023-02-12T07:46:58.599Z,17.60
2023-02-12T07:49:25.849Z,16.67
2023-02-12T07:51:53.138Z,16.93
2023-02-12T07:54:20.404Z,17.10
2023-02-12T07:56:47.729Z,17.43
2023-02-12T07:59:16.415Z,17.90
2023-02-12T08:01:46.502Z,16.13
2023-02-12T08:04:32.905Z,17.10
2023-02-12T08:07:00.357Z,17.93
2023-02-12T08:09:28.619Z,17.50
2023-02-12T08:11:55.997Z,17.87
2023-02-12T08:14:23.305Z,18.30
2023-02-12T08:16:50.913Z,17.50
2023-02-12T08:19:22.464Z,17.13
2023-02-12T08:21:52.958Z,16.80
2023-02-12T08:24:22.072Z,17.20
2023-02-12T08:26:49.408Z,17.20
2023-02-12T08:29:18.739Z,18.67
2023-02-12T08:31:47.065Z,17.13
2023-02-12T08:34:21.724Z,17.13
2023-02-12T08:36:49.778Z,18.10
2023-02-12T08:39:17.912Z,17.80
2023-02-12T08:41:46.237Z,17.77
2023-02-12T08:44:14.058Z,18.00
2023-02-12T08:46:44.118Z,18.53
2023-02-12T08:49:15.550Z,18.67
2023-02-12T08:51:44.483Z,17.50
2023-02-12T08:54:13.137Z,18.47
2023-02-12T08:56:40.655Z,17.63
2023-02-12T08:59:08.677Z,19.43
2023-02-12T09:01:43.622Z,25.43
2023-02-12T09:04:15.470Z,20.23
2023-02-12T09:06:42.865Z,18.43
2023-02-12T09:09:10.280Z,17.43
2023-02-12T09:11:37.786Z,18.03
2023-02-12T09:14:06.673Z,18.20
2023-02-12T09:16:35.444Z,18.17
2023-02-12T09:19:03.077Z,17.30
2023-02-12T09:21:30.453Z,16.93
2023-02-12T09:23:57.646Z,17.70
2023-02-12T09:26:28.803Z,16.93
2023-02-12T09:28:56.367Z,16.37
2023-02-12T09:31:26.645Z,16.33
2023-02-12T09:33:55.568Z,17.43
2023-02-12T09:36:23.138Z,17.20
2023-02-12T09:38:54.209Z,16.43
2023-02-12T09:41:40.235Z,15.70
2023-02-12T09:44:07.482Z,15.27
2023-02-12T09:46:41.966Z,15.87
2023-02-12T09:49:09.866Z,15.13
2023-02-12T09:51:38.791Z,14.90
2023-02-12T09:54:07.266Z,13.73
2023-02-12T09:56:36.203Z,15.70
2023-02-12T09:59:06.264Z,14.53
2023-02-12T10:01:33.716Z,14.73
2023-02-12T10:04:01.343Z,14.30
2023-02-12T10:06:56.258Z,13.47
2023-02-12T10:09:35.647Z,13.73
2023-02-12T10:12:09.121Z,13.33
2023-02-12T10:14:39.400Z,12.30
2023-02-12T10:17:06.982Z,11.97
2023-02-12T10:19:44.781Z,11.60
2023-02-12T10:22:21.479Z,11.03
2023-02-12T10:25:07.241Z,10.70
2023-02-12T10:27:39.862Z,10.73
2023-02-12T10:30:19.664Z,10.27
2023-02-12T10:33:05.484Z,11.60
2023-02-12T10:35:33.400Z,10.87
2023-02-12T10:38:19.919Z,10.20
2023-02-12T10:40:47.580Z,10.73
2023-02-12T10:43:14.984Z,9.17
2023-02-12T10:45:43.248Z,9.23
2023-02-12T10:48:22.338Z,9.03
2023-02-12T10:50:59.531Z,9.30
2023-02-12T10:53:30.511Z,10.23
2023-02-12T10:56:18.032Z,8.43
2023-02-12T10:58:51.349Z,8.40
2023-02-12T11:01:22.138Z,9.27
2023-02-12T11:03:49.505Z,8.57
2023-02-12T11:06:21.671Z,7.50
2023-02-12T11:08:48.964Z,8.07
2023-02-12T11:11:32.126Z,7.70
2023-02-12T11:14:01.442Z,7.93
2023-02-12T11:16:29.901Z,7.40
2023-02-12T11:19:04.887Z,7.17
2023-02-12T11:21:32.766Z,7.13
2023-02-12T11:24:19.905Z,6.80
2023-02-12T11:26:47.120Z,7.13
2023-02-12T11:29:23.557Z,6.90
2023-02-12T11:32:01.295Z,14.43
2023-02-12T11:34:29.806Z,9.73
2023-02-12T11:36:57.643Z,14.97
2023-02-12T11:39:33.132Z,6.07
2023-02-12T11:42:04.738Z,5.97
2023-02-12T11:44:37.170Z,6.10
2023-02-12T11:47:10.482Z,6.03
2023-02-12T11:49:44.443Z,6.17
2023-02-12T11:52:21.364Z,6.57
2023-02-12T11:54:49.653Z,6.63
2023-02-12T11:57:36.167Z,6.70
2023-02-12T12:00:07.474Z,5.90
2023-02-12T12:02:39.199Z,5.80
2023-02-12T12:05:16.196Z,5.53
2023-02-12T12:07:45.856Z,5.23
2023-02-12T12:10:16.541Z,5.40
2023-02-12T12:12:51.196Z,5.23
2023-02-12T12:15:37.093Z,6.17
2023-02-12T12:18:26.028Z,5.70
2023-02-12T12:20:57.758Z,5.60
2023-02-12T12:23:28.165Z,7.43
2023-02-12T12:25:57.963Z,6.10
2023-02-12T12:28:35.605Z,5.93
2023-02-12T12:31:13.104Z,6.23
2023-02-12T12:33:52.775Z,5.73
2023-02-12T12:36:38.945Z,5.40
2023-02-12T12:39:12.081Z,5.00
2023-02-12T12:41:49.868Z,5.43
2023-02-12T12:44:30.070Z,5.57
2023-02-12T12:47:06.921Z,5.00
2023-02-12T12:49:54.684Z,5.17
2023-02-12T12:52:30.909Z,5.23
2023-02-12T12:54:58.183Z,5.23
2023-02-12T12:57:40.706Z,5.20
2023-02-12T13:00:31.640Z,5.10
2023-02-12T13:03:11.228Z,5.33
2023-02-12T13:06:09.081Z,5.07
2023-02-12T13:08:55.446Z,4.93
2023-02-12T13:11:22.703Z,5.70
2023-02-12T13:13:51.294Z,5.57
2023-02-12T13:16:18.581Z,5.80
2023-02-12T13:19:05.194Z,5.83
2023-02-12T13:21:49.438Z,5.80
2023-02-12T13:24:16.833Z,6.27
2023-02-12T13:26:55.676Z,6.37
2023-02-12T13:29:31.953Z,5.90
2023-02-12T13:32:02.368Z,6.60
2023-02-12T13:34:31.505Z,5.97
2023-02-12T13:37:00.944Z,6.07
2023-02-12T13:39:33.292Z,6.30
2023-02-12T13:42:11.770Z,6.10
2023-02-12T13:44:57.795Z,5.77
2023-02-12T13:47:35.863Z,6.40
2023-02-12T13:50:21.806Z,5.63
2023-02-12T13:52:58.945Z,6.20
2023-02-12T13:55:30.015Z,6.83
2023-02-12T13:58:17.520Z,5.67
2023-02-12T14:00:57.598Z,5.73
2023-02-12T14:03:25.553Z,6.33
2023-02-12T14:06:09.518Z,6.50
2023-02-12T14:08:38.176Z,5.43
2023-02-12T14:11:07.503Z,5.07
2023-02-12T14:13:37.599Z,5.13
2023-02-12T14:16:35.924Z,5.03
2023-02-12T14:19:22.074Z,4.80
2023-02-12T14:21:49.446Z,4.67
2023-02-12T14:24:35.589Z,5.20
2023-02-12T14:27:23.148Z,5.13
2023-02-12T14:30:09.281Z,5.43
2023-02-12T14:32:46.104Z,5.33
2023-02-12T14:35:32.213Z,5.17
2023-02-12T14:38:03.015Z,5.63
2023-02-12T14:40:44.086Z,5.33
2023-02-12T14:46:23.695Z,5.03
2023-02-12T14:48:56.161Z,5.40
2023-02-12T14:51:47.765Z,4.97
2023-02-12T14:54:22.445Z,5.27
2023-02-12T14:56:50.187Z,5.23
2023-02-12T14:59:20.438Z,5.67
2023-02-12T15:01:48.818Z,5.20
2023-02-12T15:04:26.996Z,6.47
2023-02-12T15:06:59.909Z,5.50
2023-02-12T15:09:36.862Z,5.83
2023-02-12T15:12:08.386Z,5.43
2023-02-12T15:14:37.455Z,5.87
2023-02-12T15:17:14.925Z,5.70
2023-02-12T15:19:52.352Z,6.50
2023-02-12T15:22:25.102Z,5.70
2023-02-12T15:24:52.646Z,6.53
2023-02-12T15:27:39.176Z,6.53
2023-02-12T15:30:10.398Z,9.17
2023-02-12T15:32:39.174Z,8.80
2023-02-12T15:35:07.223Z,6.63
2023-02-12T15:37:34.774Z,6.37
2023-02-12T15:40:05.664Z,7.27
2023-02-12T15:42:34.605Z,7.70
2023-02-12T15:45:11.123Z,6.97
2023-02-12T15:47:38.561Z,8.30
2023-02-12T15:50:06.045Z,7.10
2023-02-12T15:52:35.272Z,8.23
2023-02-12T15:55:06.044Z,7.47
2023-02-12T15:57:33.673Z,7.67
2023-02-12T16:00:10.838Z,7.33
2023-02-12T16:02:40.654Z,8.23
2023-02-12T16:05:08.196Z,8.57
2023-02-12T16:07:36.637Z,7.10
2023-02-12T16:10:05.012Z,7.67
2023-02-12T16:12:34.655Z,7.70
2023-02-12T16:15:03.300Z,7.93
2023-02-12T16:17:34.798Z,7.67
2023-02-12T16:20:05.098Z,8.67
2023-02-12T16:22:39.826Z,8.57
2023-02-12T16:25:27.739Z,8.00
2023-02-12T16:28:01.174Z,9.17
2023-02-12T16:30:30.515Z,9.40
2023-02-12T16:32:57.765Z,9.33
2023-02-12T16:35:25.177Z,9.23
2023-02-12T16:37:56.406Z,9.17
2023-02-12T16:40:26.566Z,8.30
2023-02-12T16:42:53.811Z,8.13
2023-02-12T16:45:27.530Z,8.97
2023-02-12T16:48:04.182Z,9.07
2023-02-12T16:50:33.581Z,8.53
2023-02-12T16:53:02.017Z,9.17
2023-02-12T16:55:29.480Z,9.20
2023-02-12T16:57:56.843Z,9.67
2023-02-12T17:00:24.825Z,8.70
2023-02-12T17:02:54.658Z,8.73
2023-02-12T17:05:23.277Z,8.57
2023-02-12T17:07:51.018Z,8.90
2023-02-12T17:10:18.421Z,8.47
2023-02-12T17:12:49.827Z,9.43
2023-02-12T17:15:30.972Z,8.10
2023-02-12T17:17:59.330Z,8.70
2023-02-12T17:20:26.642Z,8.43
2023-02-12T17:22:54.910Z,9.43
2023-02-12T17:25:22.219Z,8.40
2023-02-12T17:27:49.491Z,8.20
2023-02-12T17:30:17.737Z,8.30
2023-02-12T17:32:45.062Z,8.97
2023-02-12T17:35:12.618Z,8.83
2023-02-12T17:37:39.837Z,8.90
2023-02-12T17:40:07.603Z,8.60
2023-02-12T17:42:34.861Z,8.60
2023-02-12T17:45:02.118Z,9.23
2023-02-12T17:47:31.276Z,8.90
2023-02-12T17:50:00.539Z,9.20
2023-02-12T17:52:27.782Z,9.43
2023-02-12T17:54:55.087Z,9.77
2023-02-12T17:57:22.354Z,9.57
2023-02-12T18:00:08.193Z,10.30
2023-02-12T18:02:55.406Z,8.97
2023-02-12T18:05:22.648Z,10.10
2023-02-12T18:07:49.915Z,10.80
2023-02-12T18:10:17.264Z,10.87
2023-02-12T18:12:44.525Z,10.83
2023-02-12T18:15:12.078Z,10.40
2023-02-12T18:17:41.599Z,10.93
2023-02-12T18:20:09.291Z,10.37
2023-02-12T18:22:36.600Z,10.93
2023-02-12T18:25:04.029Z,24.10
2023-02-12T18:27:31.370Z,38.10
2023-02-12T18:29:58.637Z,16.27
2023-02-12T18:32:25.995Z,11.80
2023-02-12T18:34:53.293Z,11.77
2023-02-12T18:37:20.580Z,11.63
2023-02-12T18:39:48.033Z,12.30
2023-02-12T18:42:15.348Z,12.00
2023-02-12T18:44:43.067Z,12.13
2023-02-12T18:47:10.390Z,11.57
2023-02-12T18:49:37.635Z,11.97
2023-02-12T18:52:04.969Z,12.20
2023-02-12T18:54:32.348Z,12.23
2023-02-12T18:56:59.631Z,13.07
2023-02-12T18:59:27.422Z,12.80
2023-02-12T19:01:54.940Z,12.57
2023-02-12T19:04:23.767Z,13.77
2023-02-12T19:06:52.453Z,13.87
2023-02-12T19:09:21.858Z,14.40
2023-02-12T19:11:50.139Z,13.57
2023-02-12T19:14:18.392Z,13.73
2023-02-12T19:16:46.146Z,15.73
2023-02-12T19:19:14.090Z,14.13
2023-02-12T19:21:41.930Z,13.07
2023-02-12T19:24:11.733Z,14.97
2023-02-12T19:26:39.870Z,13.67
2023-02-12T19:29:07.164Z,13.67
2023-02-12T19:31:35.889Z,13.53
2023-02-12T19:34:05.490Z,13.30
2023-02-12T19:36:33.784Z,14.83
2023-02-12T19:39:01.015Z,13.97
2023-02-12T19:41:29.684Z,13.93
2023-02-12T19:43:58.427Z,14.27
2023-02-12T19:46:28.818Z,13.63
2023-02-12T19:49:00.702Z,14.27
2023-02-12T19:51:29.807Z,14.07
2023-02-12T19:54:00.195Z,14.20
2023-02-12T19:56:27.537Z,15.13
2023-02-12T19:58:56.232Z,14.50
2023-02-12T20:01:23.625Z,14.03
2023-02-12T20:03:51.125Z,14.13
2023-02-12T20:06:23.064Z,14.47
2023-02-12T20:08:50.705Z,14.30
2023-02-12T20:11:18.960Z,14.07
2023-02-12T20:13:46.474Z,14.13
2023-02-12T20:16:18.517Z,14.63
2023-02-12T20:18:47.179Z,13.57
2023-02-12T20:21:32.550Z,13.10
2023-02-12T20:24:01.771Z,13.67
2023-02-12T20:26:30.530Z,13.93
2023-02-12T20:28:57.846Z,23.50
2023-02-12T20:31:27.766Z,60.03
2023-02-12T20:33:56.214Z,27.73
2023-02-12T20:36:24.223Z,21.43
2023-02-12T20:38:52.857Z,18.53
2023-02-12T20:41:20.469Z,16.87
2023-02-12T20:43:47.708Z,16.20
2023-02-12T20:46:16.447Z,29.70
2023-02-12T20:48:44.220Z,30.37
2023-02-12T20:51:15.864Z,29.13
2023-02-12T20:53:43.555Z,14.77
2023-02-12T20:56:14.190Z,13.73
2023-02-12T20:58:44.652Z,15.20
2023-02-12T21:01:13.506Z,14.37
2023-02-12T21:03:40.989Z,14.00
2023-02-12T21:06:08.512Z,14.37
2023-02-12T21:08:36.510Z,14.40
2023-02-12T21:11:11.794Z,14.23
2023-02-12T21:13:39.288Z,14.33
2023-02-12T21:16:08.443Z,14.47
2023-02-12T21:18:35.779Z,13.37
2023-02-12T21:21:04.410Z,14.30
2023-02-12T21:23:31.694Z,13.97
2023-02-12T21:26:12.747Z,14.07
2023-02-12T21:28:40.366Z,14.43
2023-02-12T21:31:13.929Z,15.87
2023-02-12T21:33:42.225Z,20.60
2023-02-12T21:36:10.993Z,21.37
2023-02-12T21:38:39.020Z,23.83
2023-02-12T21:41:10.588Z,23.70
2023-02-12T21:43:38.408Z,24.03
2023-02-12T21:46:05.844Z,22.37
2023-02-12T21:48:33.801Z,36.90
2023-02-12T21:51:01.512Z,37.47
2023-02-12T21:53:29.153Z,31.57
2023-02-12T21:55:56.599Z,25.07
2023-02-12T21:58:24.601Z,22.27
2023-02-12T22:00:52.686Z,23.40
2023-02-12T22:03:23.059Z,17.80
2023-02-12T22:05:51.291Z,17.27
2023-02-12T22:08:18.520Z,17.60
2023-02-12T22:10:45.714Z,17.07
2023-02-12T22:13:12.982Z,17.03
2023-02-12T22:15:40.455Z,16.70
2023-02-12T22:18:08.507Z,16.93
2023-02-12T22:20:36.949Z,16.83
2023-02-12T22:23:04.428Z,17.87
2023-02-12T22:25:31.645Z,16.03
2023-02-12T22:27:59.115Z,16.03
2023-02-12T22:30:26.474Z,17.00
2023-02-12T22:32:53.693Z,17.30
2023-02-12T22:35:20.994Z,17.30
2023-02-12T22:37:48.254Z,17.97
2023-02-12T22:40:16.140Z,17.33
2023-02-12T22:42:43.381Z,18.67
2023-02-12T22:45:12.996Z,17.60
2023-02-12T22:47:40.234Z,17.87
2023-02-12T22:50:07.992Z,17.20
2023-02-12T22:52:35.426Z,18.07
2023-02-12T22:55:03.084Z,17.03
2023-02-12T22:57:30.531Z,17.73
2023-02-12T22:59:57.709Z,16.30
2023-02-12T23:02:26.152Z,17.27
2023-02-12T23:04:53.382Z,17.97
2023-02-12T23:07:20.620Z,17.37
2023-02-12T23:09:47.922Z,17.33
2023-02-12T23:12:15.375Z,18.03
2023-02-12T23:14:42.640Z,17.97
2023-02-12T23:17:09.889Z,16.80
2023-02-12T23:19:37.171Z,18.10
2023-02-12T23:22:04.472Z,18.30
2023-02-12T23:24:31.801Z,17.60
2023-02-12T23:26:59.081Z,17.53
2023-02-12T23:29:26.309Z,17.97
2023-02-12T23:31:53.733Z,18.37
2023-02-12T23:34:21.136Z,18.37
2023-02-12T23:36:48.317Z,19.40
2023-02-12T23:39:15.975Z,19.27
2023-02-12T23:41:43.261Z,19.57
2023-02-12T23:44:10.692Z,21.17
2023-02-12T23:46:37.909Z,19.57
2023-02-12T23:49:24.195Z,19.67
2023-02-12T23:51:51.584Z,19.57
2023-02-12T23:54:18.784Z,21.10
2023-02-12T23:56:46.026Z,19.67
2023-02-12T23:59:13.202Z,20.33
